createdAt,value
2019-02-08T00:01:19.618Z,101128.86
2019-02-08T00:03:49.304Z,101130.80
2019-02-08T00:06:19.039Z,101137.66
2019-02-08T00:08:48.843Z,101143.48
2019-02-08T00:11:18.709Z,101138.98
2019-02-08T00:13:48.390Z,101132.06
2019-02-08T00:16:18.158Z,101133.73
2019-02-08T00:18:48.423Z,101129.19
2019-02-08T00:21:18.543Z,101131.28
2019-02-08T00:23:48.322Z,101128.60
2019-02-08T00:26:18.165Z,101132.03
2019-02-08T00:28:47.967Z,101130.19
2019-02-08T00:31:17.793Z,101134.45
2019-02-08T00:33:47.792Z,101131.25
2019-02-08T00:36:17.755Z,101135.78
2019-02-08T00:38:47.538Z,101136.33
2019-02-08T00:41:17.244Z,101138.69
2019-02-08T00:43:47.309Z,101137.88
2019-02-08T00:46:17.166Z,101136.56
2019-02-08T00:48:47.040Z,101135.20
2019-02-08T00:51:16.852Z,101127.25
2019-02-08T00:53:46.533Z,101129.60
2019-02-08T00:56:16.244Z,101130.89
2019-02-08T00:58:45.950Z,101130.89
2019-02-08T01:01:15.804Z,101132.77
2019-02-08T01:03:45.994Z,101132.51
2019-02-08T01:06:15.661Z,101133.29
2019-02-08T01:08:45.314Z,101127.98
2019-02-08T01:11:15.079Z,101131.99
2019-02-08T01:13:44.738Z,101135.13
2019-02-08T01:16:14.597Z,101129.38
2019-02-08T01:18:44.712Z,101128.02
2019-02-08T01:21:14.473Z,101129.34
2019-02-08T01:23:44.127Z,101125.59
2019-02-08T01:26:13.893Z,101120.29
2019-02-08T01:28:43.689Z,101122.36
2019-02-08T01:31:13.394Z,101122.32
2019-02-08T01:33:43.144Z,101122.25
2019-02-08T01:36:12.918Z,101113.45
2019-02-08T01:38:42.744Z,101122.60
2019-02-08T01:41:12.450Z,101120.24
2019-02-08T01:43:42.247Z,101112.80
2019-02-08T01:46:12.082Z,101121.74
2019-02-08T01:48:41.843Z,101118.83
2019-02-08T01:51:11.730Z,101117.67
2019-02-08T01:53:48.348Z,101109.95
2019-02-08T01:56:12.798Z,101121.34
2019-02-08T01:58:42.555Z,101123.18
2019-02-08T02:01:12.267Z,101121.30
2019-02-08T02:03:41.989Z,101109.13
2019-02-08T02:06:11.735Z,101116.47
2019-02-08T02:08:41.452Z,101115.14
2019-02-08T02:11:11.154Z,101119.66
2019-02-08T02:13:40.880Z,101120.94
2019-02-08T02:16:10.759Z,101115.44
2019-02-08T02:18:40.503Z,101117.55
2019-02-08T02:21:10.315Z,101108.87
2019-02-08T02:23:40.019Z,101117.59
2019-02-08T02:26:09.735Z,101119.81
2019-02-08T02:28:39.422Z,101121.65
2019-02-08T02:31:09.142Z,101121.55
2019-02-08T02:33:38.846Z,101120.70
2019-02-08T02:36:08.639Z,101117.84
2019-02-08T02:38:38.326Z,101120.38
2019-02-08T02:41:08.104Z,101124.52
2019-02-08T02:43:37.956Z,101119.42
2019-02-08T02:46:07.601Z,101119.13
2019-02-08T02:48:37.269Z,101112.80
2019-02-08T02:51:06.996Z,101111.67
2019-02-08T02:53:36.638Z,101111.12
2019-02-08T02:56:06.522Z,101113.26
2019-02-08T02:58:36.145Z,101108.72
2019-02-08T03:01:07.456Z,101113.01
2019-02-08T03:03:37.134Z,101112.45
2019-02-08T03:06:07.051Z,101112.80
2019-02-08T03:08:36.833Z,101116.86
2019-02-08T03:11:06.714Z,101116.81
2019-02-08T03:13:36.430Z,101109.95
2019-02-08T03:16:06.734Z,101102.98
2019-02-08T03:18:36.465Z,101104.30
2019-02-08T03:21:06.192Z,101105.37
2019-02-08T03:23:35.864Z,101101.48
2019-02-08T03:26:05.807Z,101096.14
2019-02-08T03:28:35.467Z,101099.05
2019-02-08T03:31:05.369Z,101096.48
2019-02-08T03:33:35.157Z,101102.26
2019-02-08T03:36:05.317Z,101099.91
2019-02-08T03:38:35.087Z,101093.92
2019-02-08T03:41:15.586Z,101091.23
2019-02-08T03:43:45.494Z,101082.18
2019-02-08T03:46:15.619Z,101079.83
2019-02-08T03:48:45.425Z,101074.75
2019-02-08T03:51:15.143Z,101070.56
2019-02-08T03:53:44.899Z,101075.61
2019-02-08T03:56:14.575Z,101070.31
2019-02-08T03:58:44.396Z,101077.27
2019-02-08T04:01:14.194Z,101078.03
2019-02-08T04:03:44.346Z,101070.27
2019-02-08T04:06:14.130Z,101075.86
2019-02-08T04:08:43.817Z,101070.05
2019-02-08T04:11:13.628Z,101070.61
2019-02-08T04:13:43.474Z,101057.91
2019-02-08T04:16:13.303Z,101068.55
2019-02-08T04:18:43.088Z,101060.90
2019-02-08T04:21:12.763Z,101061.45
2019-02-08T04:23:42.499Z,101066.48
2019-02-08T04:26:12.226Z,101057.52
2019-02-08T04:28:41.964Z,101069.18
2019-02-08T04:31:11.647Z,101062.84
2019-02-08T04:33:41.416Z,101059.72
2019-02-08T04:36:11.101Z,101062.07
2019-02-08T04:38:40.863Z,101066.05
2019-02-08T04:41:10.507Z,101064.76
2019-02-08T04:43:40.189Z,101062.11
2019-02-08T04:46:10.075Z,101065.59
2019-02-08T04:48:40.006Z,101065.56
2019-02-08T04:51:09.748Z,101067.95
2019-02-08T04:53:39.430Z,101064.47
2019-02-08T04:56:09.163Z,101059.23
2019-02-08T04:58:38.857Z,101052.34
2019-02-08T05:01:08.668Z,101049.41
2019-02-08T05:03:38.455Z,101049.44
2019-02-08T05:06:08.345Z,101052.06
2019-02-08T05:08:38.058Z,101043.56
2019-02-08T05:11:07.710Z,101044.91
2019-02-08T05:13:37.787Z,101046.47
2019-02-08T05:16:07.786Z,101042.78
2019-02-08T05:18:37.421Z,101044.91
2019-02-08T05:21:07.214Z,101044.95
2019-02-08T05:23:36.992Z,101044.11
2019-02-08T05:26:06.834Z,101041.42
2019-02-08T05:28:36.509Z,101043.33
2019-02-08T05:31:06.351Z,101048.31
2019-02-08T05:33:36.027Z,101040.87
2019-02-08T05:36:05.744Z,101041.75
2019-02-08T05:38:35.449Z,101045.44
2019-02-08T05:41:05.320Z,101032.12
2019-02-08T05:43:34.975Z,101029.21
2019-02-08T05:46:04.765Z,101025.04
2019-02-08T05:48:34.471Z,101024.75
2019-02-08T05:51:04.343Z,101018.39
2019-02-08T05:53:34.150Z,101021.30
2019-02-08T05:56:03.871Z,101021.58
2019-02-08T05:58:33.643Z,101020.26
2019-02-08T06:01:03.499Z,101013.63
2019-02-08T06:03:33.178Z,101018.96
2019-02-08T06:06:03.261Z,101015.50
2019-02-08T06:08:33.031Z,101008.65
2019-02-08T06:11:02.664Z,101005.73
2019-02-08T06:13:32.406Z,101005.20
2019-02-08T06:16:02.230Z,101003.55
2019-02-08T06:18:32.084Z,101006.72
2019-02-08T06:21:01.792Z,101002.77
2019-02-08T06:23:31.774Z,101010.72
2019-02-08T06:26:02.160Z,101009.72
2019-02-08T06:28:31.869Z,101008.39
2019-02-08T06:31:01.606Z,101014.20
2019-02-08T06:33:31.318Z,101015.56
2019-02-08T06:36:02.201Z,101009.42
2019-02-08T06:38:31.855Z,101019.73
2019-02-08T06:41:01.616Z,101020.00
2019-02-08T06:43:31.422Z,101022.39
2019-02-08T06:46:01.052Z,101018.64
2019-02-08T06:48:30.819Z,101019.30
2019-02-08T06:51:00.472Z,101023.74
2019-02-08T06:53:30.342Z,101014.78
2019-02-08T06:56:00.007Z,101020.83
2019-02-08T06:58:34.077Z,101015.82
2019-02-08T07:01:09.881Z,101018.47
2019-02-08T07:03:53.771Z,101017.46
2019-02-08T07:06:25.054Z,101024.86
2019-02-08T07:09:08.449Z,101023.31
2019-02-08T07:11:45.285Z,101020.37
2019-02-08T07:14:29.150Z,101020.67
2019-02-08T07:17:06.409Z,101018.05
2019-02-08T07:19:46.752Z,101014.28
2019-02-08T07:22:23.999Z,101017.98
2019-02-08T07:25:01.464Z,101011.70
2019-02-08T07:27:32.890Z,101014.34
2019-02-08T07:30:04.430Z,101010.08
2019-02-08T07:32:35.856Z,101013.53
2019-02-08T07:35:13.944Z,101000.81
2019-02-08T07:38:02.984Z,101007.80
2019-02-08T07:40:39.145Z,101009.60
2019-02-08T07:43:17.761Z,101006.48
2019-02-08T07:45:50.882Z,101008.89
2019-02-08T07:48:36.364Z,101007.44
2019-02-08T07:51:08.030Z,101004.53
2019-02-08T07:53:39.510Z,101012.47
2019-02-08T07:56:14.535Z,101013.52
2019-02-08T07:58:49.541Z,101009.77
2019-02-08T08:01:38.211Z,101011.09
2019-02-08T08:04:14.901Z,101009.25
2019-02-08T08:06:55.973Z,101013.20
2019-02-08T08:09:25.562Z,101011.61
2019-02-08T08:11:56.955Z,101011.88
2019-02-08T08:14:34.472Z,101015.84
2019-02-08T08:17:04.481Z,101012.67
2019-02-08T08:19:52.594Z,101005.00
2019-02-08T08:22:39.896Z,101010.31
2019-02-08T08:25:25.348Z,101006.31
2019-02-08T08:27:57.870Z,101019.30
2019-02-08T08:30:31.490Z,101008.96
2019-02-08T08:33:16.107Z,101006.33
2019-02-08T08:36:04.822Z,101010.53
2019-02-08T08:39:00.129Z,101008.67
2019-02-08T08:41:43.312Z,101008.95
2019-02-08T08:44:37.969Z,101008.97
2019-02-08T08:47:37.969Z,101008.70
2019-02-08T08:50:45.927Z,101009.23
2019-02-08T08:53:36.664Z,101010.59
2019-02-08T08:56:37.410Z,101001.58
2019-02-08T08:59:11.686Z,101003.96
2019-02-08T09:02:07.308Z,101000.75
2019-02-08T09:04:59.976Z,101003.70
2019-02-08T09:08:13.530Z,100996.55
2019-02-08T09:11:08.692Z,100995.20
2019-02-08T09:14:04.433Z,100985.91
2019-02-08T09:17:15.330Z,100982.73
2019-02-08T09:20:10.632Z,100984.87
2019-02-08T09:22:54.104Z,100989.34
2019-02-08T09:25:58.696Z,100976.89
2019-02-08T09:28:48.312Z,100980.88
2019-02-08T09:31:25.214Z,100978.49
2019-02-08T09:34:29.753Z,100987.52
2019-02-08T09:37:49.551Z,100980.61
2019-02-08T09:40:44.145Z,100983.02
2019-02-08T09:43:36.432Z,100970.80
2019-02-08T09:46:31.685Z,100971.89
2019-02-08T09:49:25.312Z,100973.74
2019-02-08T09:52:31.138Z,100966.56
2019-02-08T09:55:43.307Z,100961.78
2019-02-08T09:58:57.122Z,100960.46
2019-02-08T10:01:51.759Z,100954.09
2019-02-08T10:05:16.253Z,100945.33
2019-02-08T10:08:26.553Z,100952.78
2019-02-08T10:11:20.340Z,100945.84
2019-02-08T10:14:02.669Z,100943.97
2019-02-08T10:17:22.656Z,100944.23
2019-02-08T10:20:28.757Z,100932.26
2019-02-08T10:23:15.099Z,100926.40
2019-02-08T10:26:07.234Z,100928.00
2019-02-08T10:29:25.709Z,100926.11
2019-02-08T10:32:14.978Z,100930.64
2019-02-08T10:35:22.364Z,100933.27
2019-02-08T10:38:23.875Z,100925.83
2019-02-08T10:41:31.715Z,100922.38
2019-02-08T10:44:33.132Z,100922.91
2019-02-08T10:47:35.948Z,100917.84
2019-02-08T10:50:37.129Z,100918.09
2019-02-08T10:53:43.333Z,100913.02
2019-02-08T10:57:00.135Z,100902.14
2019-02-08T11:00:12.446Z,100905.86
2019-02-08T11:03:26.041Z,100900.79
2019-02-08T11:06:37.449Z,100891.73
2019-02-08T11:10:01.704Z,100884.98
2019-02-08T11:13:01.731Z,100888.45
2019-02-08T11:15:59.575Z,100885.02
2019-02-08T11:18:55.881Z,100874.88
2019-02-08T11:21:28.247Z,100872.77
2019-02-08T11:23:58.030Z,100867.70
2019-02-08T11:26:28.626Z,100870.39
2019-02-08T11:29:11.293Z,100857.37
2019-02-08T11:31:41.335Z,100850.97
2019-02-08T11:34:11.534Z,100844.88
2019-02-08T11:36:42.071Z,100844.31
2019-02-08T11:39:17.527Z,100841.94
2019-02-08T11:41:48.105Z,100838.47
2019-02-08T11:44:18.185Z,100837.67
2019-02-08T11:46:48.105Z,100842.67
2019-02-08T11:49:18.032Z,100827.24
2019-02-08T11:51:47.738Z,100827.03
2019-02-08T11:54:17.818Z,100824.09
2019-02-08T11:56:47.790Z,100811.77
2019-02-08T11:59:17.539Z,100814.63
2019-02-08T12:01:48.105Z,100812.78
2019-02-08T12:04:18.364Z,100805.88
2019-02-08T12:06:48.146Z,100800.52
2019-02-08T12:09:18.351Z,100792.98
2019-02-08T12:11:51.116Z,100793.00
2019-02-08T12:14:21.029Z,100793.28
2019-02-08T12:16:50.857Z,100783.84
2019-02-08T12:19:20.631Z,100779.95
2019-02-08T12:21:50.263Z,100774.78
2019-02-08T12:24:20.600Z,100773.27
2019-02-08T12:26:50.400Z,100772.20
2019-02-08T12:29:20.289Z,100769.27
2019-02-08T12:31:50.042Z,100761.89
2019-02-08T12:34:19.753Z,100763.71
2019-02-08T12:36:49.534Z,100763.50
2019-02-08T12:39:19.374Z,100756.05
2019-02-08T12:41:51.032Z,100759.04
2019-02-08T12:44:20.801Z,100746.22
2019-02-08T12:46:52.020Z,100747.59
2019-02-08T12:49:21.817Z,100744.97
2019-02-08T12:51:51.639Z,100744.48
2019-02-08T12:54:21.514Z,100744.65
2019-02-08T12:56:51.240Z,100733.80
2019-02-08T12:59:20.974Z,100736.43
2019-02-08T13:01:50.806Z,100737.86
2019-02-08T13:04:20.528Z,100738.57
2019-02-08T13:06:50.221Z,100739.90
2019-02-08T13:09:19.960Z,100733.53
2019-02-08T13:11:49.884Z,100721.78
2019-02-08T13:14:19.556Z,100723.63
2019-02-08T13:16:49.399Z,100715.13
2019-02-08T13:19:19.183Z,100711.66
2019-02-08T13:21:49.166Z,100701.25
2019-02-08T13:24:18.980Z,100706.40
2019-02-08T13:26:53.018Z,100685.08
2019-02-08T13:29:20.256Z,100681.33
2019-02-08T13:31:49.997Z,100689.95
2019-02-08T13:34:19.956Z,100682.38
2019-02-08T13:36:49.602Z,100672.64
2019-02-08T13:39:38.633Z,100665.17
2019-02-08T13:42:08.495Z,100670.16
2019-02-08T13:44:38.258Z,100666.61
2019-02-08T13:47:08.122Z,100650.85
2019-02-08T13:49:37.913Z,100652.05
2019-02-08T13:52:07.719Z,100654.78
2019-02-08T13:54:37.619Z,100644.39
2019-02-08T13:57:07.405Z,100641.40
2019-02-08T13:59:37.215Z,100645.53
2019-02-08T14:02:06.948Z,100634.60
2019-02-08T14:04:36.711Z,100632.73
2019-02-08T14:07:06.685Z,100621.22
2019-02-08T14:09:36.510Z,100629.61
2019-02-08T14:12:06.645Z,100620.82
2019-02-08T14:14:36.336Z,100617.63
2019-02-08T14:17:07.699Z,100610.05
2019-02-08T14:19:37.398Z,100612.39
2019-02-08T14:22:07.197Z,100599.58
2019-02-08T14:24:36.886Z,100594.28
2019-02-08T14:27:08.641Z,100584.65
2019-02-08T14:29:38.096Z,100588.52
2019-02-08T14:32:07.971Z,100589.33
2019-02-08T14:34:43.431Z,100592.92
2019-02-08T14:37:09.225Z,100582.87
2019-02-08T14:39:39.002Z,100581.14
2019-02-08T14:42:08.796Z,100583.53
2019-02-08T14:44:38.578Z,100587.64
2019-02-08T14:47:08.513Z,100579.28
2019-02-08T14:49:38.181Z,100580.38
2019-02-08T14:52:08.084Z,100583.83
2019-02-08T14:54:37.942Z,100575.45
2019-02-08T14:57:16.275Z,100579.56
2019-02-08T14:59:39.862Z,100569.45
2019-02-08T15:02:11.137Z,100565.63
2019-02-08T15:04:40.995Z,100578.23
2019-02-08T15:07:10.907Z,100578.53
2019-02-08T15:09:40.680Z,100580.90
2019-02-08T15:12:10.503Z,100572.75
2019-02-08T15:14:40.239Z,100570.33
2019-02-08T15:17:10.041Z,100569.33
2019-02-08T15:19:39.969Z,100560.83
2019-02-08T15:22:09.721Z,100560.56
2019-02-08T15:24:39.490Z,100553.73
2019-02-08T15:27:09.172Z,100559.23
2019-02-08T15:29:38.818Z,100558.19
2019-02-08T15:32:08.640Z,100553.61
2019-02-08T15:34:38.520Z,100552.88
2019-02-08T15:37:08.362Z,100555.30
2019-02-08T15:39:38.150Z,100545.47
2019-02-08T15:42:08.037Z,100529.45
2019-02-08T15:44:37.883Z,100523.62
2019-02-08T15:47:09.815Z,100521.20
2019-02-08T15:49:39.610Z,100523.02
2019-02-08T15:52:09.441Z,100513.79
2019-02-08T15:54:39.377Z,100511.13
2019-02-08T15:57:10.713Z,100504.70
2019-02-08T15:59:40.459Z,100503.88
2019-02-08T16:02:11.643Z,100504.25
2019-02-08T16:04:41.538Z,100514.38
2019-02-08T16:07:11.697Z,100500.78
2019-02-08T16:09:41.388Z,100489.62
2019-02-08T16:12:11.291Z,100494.06
2019-02-08T16:14:41.032Z,100484.77
2019-02-08T16:17:10.908Z,100487.13
2019-02-08T16:19:40.742Z,100495.61
2019-02-08T16:22:10.608Z,100479.95
2019-02-08T16:24:40.230Z,100480.17
2019-02-08T16:27:09.941Z,100474.38
2019-02-08T16:29:39.654Z,100470.16
2019-02-08T16:32:09.986Z,100461.73
2019-02-08T16:34:39.897Z,100460.73
2019-02-08T16:37:09.925Z,100458.83
2019-02-08T16:39:39.644Z,100449.01
2019-02-08T16:42:09.750Z,100448.72
2019-02-08T16:44:39.572Z,100455.06
2019-02-08T16:47:09.983Z,100447.30
2019-02-08T16:49:39.739Z,100441.64
2019-02-08T16:52:09.591Z,100436.59
2019-02-08T16:54:39.405Z,100432.84
2019-02-08T16:57:12.945Z,100422.95
2019-02-08T16:59:43.557Z,100420.56
2019-02-08T17:02:14.313Z,100425.06
2019-02-08T17:04:44.410Z,100416.04
2019-02-08T17:07:16.108Z,100416.81
2019-02-08T17:09:46.430Z,100416.50
2019-02-08T17:12:16.759Z,100417.39
2019-02-08T17:14:49.687Z,100408.27
2019-02-08T17:17:19.829Z,100413.64
2019-02-08T17:19:50.144Z,100403.48
2019-02-08T17:22:20.892Z,100403.50
2019-02-08T17:24:51.142Z,100401.57
2019-02-08T17:27:21.411Z,100398.11
2019-02-08T17:29:51.783Z,100404.21
2019-02-08T17:32:22.103Z,100400.75
2019-02-08T17:34:54.304Z,100392.55
2019-02-08T17:37:25.378Z,100395.21
2019-02-08T17:39:56.008Z,100390.77
2019-02-08T17:42:26.160Z,100376.08
2019-02-08T17:44:57.929Z,100369.42
2019-02-08T17:47:28.909Z,100374.67
2019-02-08T17:50:00.030Z,100363.20
2019-02-08T17:52:30.270Z,100370.59
2019-02-08T17:55:00.376Z,100369.42
2019-02-08T17:57:31.080Z,100367.27
2019-02-08T18:00:00.945Z,100357.59
2019-02-08T18:02:31.543Z,100358.70
2019-02-08T18:05:01.520Z,100349.98
2019-02-08T18:07:32.031Z,100345.91
2019-02-08T18:10:03.589Z,100354.50
2019-02-08T18:12:35.183Z,100347.27
2019-02-08T18:15:28.944Z,100341.20
2019-02-08T18:17:59.252Z,100342.45
2019-02-08T18:20:43.075Z,100347.91
2019-02-08T18:23:14.211Z,100349.55
2019-02-08T18:25:44.114Z,100344.06
2019-02-08T18:28:13.836Z,100333.00
2019-02-08T18:30:43.565Z,100324.72
2019-02-08T18:33:13.543Z,100326.05
2019-02-08T18:35:43.242Z,100319.30
2019-02-08T18:38:13.132Z,100321.21
2019-02-08T18:40:42.852Z,100311.77
2019-02-08T18:43:12.626Z,100306.52
2019-02-08T18:45:42.510Z,100300.82
2019-02-08T18:48:12.620Z,100304.13
2019-02-08T18:50:54.586Z,100294.31
2019-02-08T18:53:24.297Z,100283.88
2019-02-08T18:55:54.040Z,100281.30
2019-02-08T18:58:23.943Z,100277.73
2019-02-08T19:00:55.330Z,100270.63
2019-02-08T19:03:25.884Z,100270.63
2019-02-08T19:05:55.668Z,100270.93
2019-02-08T19:08:25.477Z,100264.16
2019-02-08T19:10:55.272Z,100258.03
2019-02-08T19:13:25.485Z,100263.50
2019-02-08T19:15:55.388Z,100246.71
2019-02-08T19:18:25.243Z,100236.30
2019-02-08T19:20:55.011Z,100218.77
2019-02-08T19:23:24.787Z,100209.38
2019-02-08T19:25:54.551Z,100220.28
2019-02-08T19:28:26.546Z,100212.71
2019-02-08T19:30:55.700Z,100210.50
2019-02-08T19:33:25.545Z,100209.16
2019-02-08T19:35:55.234Z,100198.75
2019-02-08T19:38:24.950Z,100190.38
2019-02-08T19:40:54.678Z,100195.17
2019-02-08T19:43:24.445Z,100184.33
2019-02-08T19:45:54.229Z,100184.92
2019-02-08T19:48:23.943Z,100184.86
2019-02-08T19:50:53.791Z,100178.88
2019-02-08T19:53:23.497Z,100173.05
2019-02-08T19:55:53.432Z,100172.02
2019-02-08T19:58:25.782Z,100163.03
2019-02-08T20:00:55.479Z,100167.62
2019-02-08T20:03:25.190Z,100162.06
2019-02-08T20:05:54.965Z,100151.98
2019-02-08T20:08:24.673Z,100151.47
2019-02-08T20:10:54.849Z,100142.28
2019-02-08T20:13:24.603Z,100142.47
2019-02-08T20:15:54.238Z,100134.76
2019-02-08T20:18:24.033Z,100137.12
2019-02-08T20:20:53.807Z,100140.20
2019-02-08T20:23:23.536Z,100124.51
2019-02-08T20:25:53.183Z,100115.00
2019-02-08T20:28:23.028Z,100107.42
2019-02-08T20:30:52.755Z,100117.59
2019-02-08T20:33:22.446Z,100102.73
2019-02-08T20:35:52.082Z,100109.11
2019-02-08T20:38:21.828Z,100096.38
2019-02-08T20:40:52.529Z,100090.86
2019-02-08T20:43:23.828Z,100092.32
2019-02-08T20:45:53.546Z,100089.16
2019-02-08T20:48:23.773Z,100075.69
2019-02-08T20:50:53.595Z,100087.16
2019-02-08T20:53:24.277Z,100073.36
2019-02-08T20:55:54.371Z,100076.35
2019-02-08T20:58:24.276Z,100073.06
2019-02-08T21:00:54.655Z,100068.55
2019-02-08T21:03:25.006Z,100071.20
2019-02-08T21:05:54.803Z,100052.58
2019-02-08T21:08:24.694Z,100057.50
2019-02-08T21:10:54.566Z,100053.61
2019-02-08T21:13:24.277Z,100045.27
2019-02-08T21:15:54.462Z,100046.27
2019-02-08T21:18:24.263Z,100049.52
2019-02-08T21:20:54.089Z,100055.14
2019-02-08T21:23:23.844Z,100047.30
2019-02-08T21:25:53.606Z,100050.36
2019-02-08T21:28:23.336Z,100042.34
2019-02-08T21:30:53.014Z,100043.21
2019-02-08T21:33:22.791Z,100033.56
2019-02-08T21:35:52.548Z,100028.38
2019-02-08T21:38:22.405Z,100033.80
2019-02-08T21:40:52.258Z,100038.39
2019-02-08T21:43:21.995Z,100021.70
2019-02-08T21:45:51.845Z,100024.09
2019-02-08T21:48:21.643Z,100026.72
2019-02-08T21:50:51.300Z,100022.92
2019-02-08T21:53:21.119Z,100022.39
2019-02-08T21:55:50.999Z,100022.13
2019-02-08T21:58:20.662Z,100032.73
2019-02-08T22:00:50.348Z,100024.19
2019-02-08T22:03:20.273Z,100017.80
2019-02-08T22:05:54.650Z,100014.95
2019-02-08T22:08:24.501Z,100012.86
2019-02-08T22:10:54.381Z,100006.11
2019-02-08T22:13:24.153Z,100000.52
2019-02-08T22:15:53.954Z,100005.61
2019-02-08T22:18:23.732Z,100002.42
2019-02-08T22:20:53.608Z,100005.31
2019-02-08T22:23:23.294Z,99993.34
2019-02-08T22:25:53.060Z,99983.02
2019-02-08T22:28:22.747Z,99987.53
2019-02-08T22:30:52.583Z,99980.66
2019-02-08T22:33:22.341Z,99981.81
2019-02-08T22:35:52.134Z,99967.26
2019-02-08T22:38:21.972Z,99973.64
2019-02-08T22:40:51.992Z,99960.11
2019-02-08T22:43:21.656Z,99965.77
2019-02-08T22:45:52.957Z,99957.35
2019-02-08T22:48:22.695Z,99961.58
2019-02-08T22:50:52.516Z,99957.89
2019-02-08T22:53:22.302Z,99957.69
2019-02-08T22:55:51.935Z,99960.30
2019-02-08T22:58:21.979Z,99957.58
2019-02-08T23:00:56.185Z,99957.16
2019-02-08T23:03:25.880Z,99956.45
2019-02-08T23:05:55.514Z,99951.11
2019-02-08T23:08:25.266Z,99949.80
2019-02-08T23:10:55.099Z,99945.41
2019-02-08T23:13:24.870Z,99942.02
2019-02-08T23:15:54.530Z,99945.21
2019-02-08T23:18:24.302Z,99939.52
2019-02-08T23:20:54.854Z,99939.23
2019-02-08T23:23:24.614Z,99950.27
2019-02-08T23:25:54.424Z,99931.64
2019-02-08T23:28:24.194Z,99932.20
2019-02-08T23:30:54.048Z,99926.66
2019-02-08T23:33:23.729Z,99917.66
2019-02-08T23:35:53.540Z,99926.78
2019-02-08T23:38:23.352Z,99924.98
2019-02-08T23:40:53.187Z,99915.13
2019-02-08T23:43:22.890Z,99904.89
2019-02-08T23:45:52.687Z,99910.05
2019-02-08T23:48:22.478Z,99904.98
2019-02-08T23:50:52.233Z,99893.03
2019-02-08T23:53:21.855Z,99903.50
2019-02-08T23:55:51.876Z,99897.81
2019-02-08T23:58:21.546Z,99900.41
